Time;durP1;ratioP1;P1;durP2;ratioP2;P2;SDS_P1;SDS_P2;PMS_P1;PMS_P2;Temp;Humidity;BMP_temperature;BMP_pressure;BME280_temperature;BME280_humidity;BME280_pressure;Samples;Min_cycle;Max_cycle;Signal;HPM_P1;HPM_P2
2024/04/12 00:01:59;;;;;;;14.10;6.40;;;;;;;12.68;63.46;102052.98;106809;1251;96510;-79
2024/04/12 00:04:45;;;;;;;9.30;6.60;;;;;;;12.68;63.60;102050.13;106874;1251;98470;-81
2024/04/12 00:07:35;;;;;;;12.60;8.40;;;;;;;12.69;63.59;102051.72;106690;1251;101359;-80
2024/04/12 00:10:23;;;;;;;11.80;7.00;;;;;;;12.70;63.77;102054.64;106957;1253;99081;-79
2024/04/12 00:13:10;;;;;;;15.90;7.00;;;;;;;12.71;63.80;102061.37;106769;1253;98332;-81
2024/04/12 00:15:56;;;;;;;10.00;6.30;;;;;;;12.70;63.67;102061.93;106757;1255;97880;-80
2024/04/12 00:18:45;;;;;;;11.20;6.70;;;;;;;12.70;63.89;102058.33;106599;1251;100324;-80
2024/04/12 00:21:32;;;;;;;11.90;5.60;;;;;;;12.70;64.00;102055.81;106089;1256;101310;-80
2024/04/12 00:24:17;;;;;;;11.00;6.80;;;;;;;12.71;64.30;102054.88;106098;1251;100163;-78
2024/04/12 00:27:05;;;;;;;12.60;6.40;;;;;;;12.71;64.39;102053.23;106320;1253;99041;-80
2024/04/12 00:29:53;;;;;;;12.20;6.50;;;;;;;12.70;64.28;102051.34;106727;1256;97901;-80
2024/04/12 00:32:42;;;;;;;12.60;6.00;;;;;;;12.71;64.47;102053.23;106880;1253;98415;-79
2024/04/12 00:35:34;;;;;;;10.00;6.20;;;;;;;12.72;64.48;102051.66;106883;1257;101324;-80
2024/04/12 00:38:23;;;;;;;11.60;6.40;;;;;;;12.74;64.52;102050.18;106254;1253;108515;-79
2024/04/12 00:41:20;;;;;;;10.60;6.10;;;;;;;12.76;64.76;102049.98;106047;1251;98967;-79
2024/04/12 00:44:08;;;;;;;9.10;5.50;;;;;;;12.77;64.54;102047.90;106025;1251;98562;-78
2024/04/12 00:46:59;;;;;;;13.70;6.50;;;;;;;12.78;64.78;102046.92;106181;1254;99696;-81
2024/04/12 00:49:49;;;;;;;13.00;6.20;;;;;;;12.78;64.76;102041.52;105988;1263;102305;-79
2024/04/12 00:52:37;;;;;;;11.80;6.30;;;;;;;12.78;64.84;102033.83;105981;1253;100370;-78
2024/04/12 00:55:22;;;;;;;11.30;6.70;;;;;;;12.79;64.94;102027.09;106043;1251;98073;-80
2024/04/12 00:58:13;;;;;;;14.40;6.20;;;;;;;12.79;65.00;102025.25;106033;1253;97929;-80
2024/04/12 01:01:11;;;;;;;13.70;6.40;;;;;;;12.80;65.20;102026.55;106035;1256;98633;-78
2024/04/12 01:03:56;;;;;;;18.00;8.00;;;;;;;12.82;65.07;102028.05;106710;1251;101360;-79
2024/04/12 01:06:43;;;;;;;13.50;6.30;;;;;;;12.84;65.09;102026.20;106612;1253;99828;-80
2024/04/12 01:09:29;;;;;;;8.60;6.10;;;;;;;12.86;65.23;102025.55;106524;1253;98647;-79
2024/04/12 01:12:17;;;;;;;12.60;5.80;;;;;;;12.88;65.36;102028.61;106236;1254;136175;-79
2024/04/12 01:15:07;;;;;;;10.30;6.50;;;;;;;12.89;65.24;102034.95;106397;1259;97056;-80
2024/04/12 01:17:52;;;;;;;13.20;6.10;;;;;;;12.90;65.47;102033.80;105894;1254;101354;-78
2024/04/12 01:20:39;;;;;;;12.30;6.10;;;;;;;12.90;65.56;102035.02;106301;1259;100370;-79
2024/04/12 01:23:27;;;;;;;18.90;6.50;;;;;;;12.91;65.55;102032.38;106369;1254;98460;-79
2024/04/12 01:26:14;;;;;;;14.20;7.20;;;;;;;12.92;65.68;102031.55;105871;1259;98076;-80
2024/04/12 01:28:59;;;;;;;12.40;6.60;;;;;;;12.94;65.76;102040.66;107465;1254;96341;-80
2024/04/12 01:31:44;;;;;;;9.90;6.80;;;;;;;12.94;65.82;102043.30;105781;1254;102103;-79
2024/04/12 01:34:31;;;;;;;11.40;6.30;;;;;;;12.96;65.95;102043.62;105750;1259;100499;-79
2024/04/12 01:37:20;;;;;;;12.10;6.60;;;;;;;12.98;65.90;102045.05;105484;1264;98634;-77
2024/04/12 01:40:12;;;;;;;10.20;5.80;;;;;;;12.98;65.94;102047.96;105860;1259;99206;-79
2024/04/12 01:43:00;;;;;;;13.70;6.40;;;;;;;12.98;66.06;102049.94;105833;1259;98466;-80
2024/04/12 01:45:45;;;;;;;12.80;6.20;;;;;;;12.98;66.26;102050.74;105916;1254;102537;-79
2024/04/12 01:48:33;;;;;;;11.30;6.50;;;;;;;12.98;66.33;102046.10;105923;1254;99927;-79
2024/04/12 01:51:19;;;;;;;12.40;6.40;;;;;;;12.97;66.67;102046.84;105902;1259;98436;-78
2024/04/12 01:54:13;;;;;;;13.30;6.40;;;;;;;12.96;66.52;102046.60;105767;1260;97955;-80
2024/04/12 01:57:03;;;;;;;8.70;5.80;;;;;;;12.95;66.63;102042.87;105794;1254;97893;-80
2024/04/12 01:59:53;;;;;;;14.70;6.10;;;;;;;12.93;66.44;102036.48;105772;1259;101488;-79
2024/04/12 02:02:39;;;;;;;13.10;6.20;;;;;;;12.90;66.55;102030.49;105950;1254;100190;-80
2024/04/12 02:05:44;;;;;;;12.60;5.90;;;;;;;12.90;66.89;102026.40;105719;1260;98496;-79
2024/04/12 02:08:30;;;;;;;8.70;5.50;;;;;;;12.91;66.86;102029.30;105836;1259;97881;-80
2024/04/12 02:11:22;;;;;;;9.20;5.20;;;;;;;12.92;66.84;102031.38;105802;1260;98821;-80
2024/04/12 02:14:08;;;;;;;10.00;5.60;;;;;;;12.93;66.80;102030.25;106545;1259;101321;-79
2024/04/12 02:16:53;;;;;;;10.00;5.00;;;;;;;12.93;66.74;102027.38;105795;1259;100424;-79
2024/04/12 02:19:40;;;;;;;10.70;5.80;;;;;;;12.92;66.80;102030.53;105814;1254;98973;-78
2024/04/12 02:22:28;;;;;;;12.70;6.30;;;;;;;12.93;66.97;102033.67;105797;1254;98088;-77
2024/04/12 02:25:13;;;;;;;9.60;6.20;;;;;;;12.92;67.05;102037.13;105833;1253;98482;-78
2024/04/12 02:28:08;;;;;;;9.80;6.30;;;;;;;12.90;67.26;102040.42;105788;1259;101347;-79
2024/04/12 02:30:57;;;;;;;10.40;6.80;;;;;;;12.89;67.30;102043.24;105910;1257;99249;-79
2024/04/12 02:33:42;;;;;;;11.00;7.00;;;;;;;12.89;67.64;102043.25;105493;1259;99014;-78
2024/04/12 02:36:32;;;;;;;9.10;6.20;;;;;;;12.89;67.77;102039.61;105521;1264;98000;-78
2024/04/12 02:39:22;;;;;;;12.30;6.60;;;;;;;12.88;67.51;102035.78;105797;1259;99545;-78
2024/04/12 02:42:13;;;;;;;12.50;6.80;;;;;;;12.87;67.38;102035.70;105883;1254;102240;-79
2024/04/12 02:44:59;;;;;;;16.00;6.90;;;;;;;12.87;67.75;102035.87;105907;1269;100373;-78
2024/04/12 02:47:44;;;;;;;10.80;6.10;;;;;;;12.87;67.84;102030.73;105832;1260;97974;-78
2024/04/12 02:50:30;;;;;;;9.50;6.10;;;;;;;12.86;67.60;102030.30;105840;1263;97881;-78
2024/04/12 02:53:18;;;;;;;12.10;5.80;;;;;;;12.86;67.85;102028.48;105784;1258;98406;-79
2024/04/12 02:56:11;;;;;;;14.80;7.20;;;;;;;12.86;67.98;102027.88;105631;1259;102628;-78
2024/04/12 02:58:57;;;;;;;13.20;6.50;;;;;;;12.86;67.91;102033.95;105706;1255;99893;-78
2024/04/12 03:01:43;;;;;;;10.10;5.80;;;;;;;12.85;68.23;102039.50;108612;1255;97715;-79
2024/04/12 03:04:29;;;;;;;12.80;6.70;;;;;;;12.81;68.21;102041.38;105944;1260;97874;-78
2024/04/12 03:07:15;;;;;;;10.60;7.00;;;;;;;12.78;68.32;102035.63;105918;1260;97952;-79
2024/04/12 03:10:06;;;;;;;9.60;6.20;;;;;;;12.75;68.57;102032.17;105843;1260;101898;-78
2024/04/12 03:12:51;;;;;;;12.70;6.90;;;;;;;12.72;68.47;102026.55;105834;1258;99211;-79
2024/04/12 03:15:36;;;;;;;12.80;7.10;;;;;;;12.69;68.42;102027.19;105737;1258;97974;-80
2024/04/12 03:18:23;;;;;;;15.20;7.60;;;;;;;12.64;68.53;102025.33;105820;1260;97961;-79
2024/04/12 03:21:21;;;;;;;12.80;7.70;;;;;;;12.58;68.33;102026.33;106292;1260;97760;-80
2024/04/12 03:24:09;;;;;;;17.60;7.30;;;;;;;12.53;68.51;102024.57;106546;1254;102652;-80
2024/04/12 03:26:55;;;;;;;15.60;7.70;;;;;;;12.48;68.51;102021.33;106381;1258;99124;-79
2024/04/12 03:29:40;;;;;;;14.30;7.90;;;;;;;12.43;68.66;102020.61;106196;1260;97893;-79
2024/04/12 03:32:32;;;;;;;14.50;7.50;;;;;;;12.39;68.67;102020.88;105874;1254;98071;-79
2024/04/12 03:35:20;;;;;;;16.60;7.60;;;;;;;12.35;68.62;102023.41;105786;1260;97874;-79
2024/04/12 03:41:09;;;;;;;14.20;8.90;;;;;;;12.27;68.77;102027.96;105833;1256;99749;-78
2024/04/12 03:43:55;;;;;;;11.60;7.70;;;;;;;12.22;68.82;102026.98;105725;1260;97948;-78
2024/04/12 03:46:43;;;;;;;12.50;6.90;;;;;;;12.19;68.93;102025.88;105847;1258;98069;-79
2024/04/12 03:49:29;;;;;;;14.00;7.60;;;;;;;12.15;69.07;102031.20;105662;1254;98013;-79
2024/04/12 03:52:19;;;;;;;15.60;7.50;;;;;;;12.11;69.02;102032.52;105912;1260;102372;-78
2024/04/12 03:55:09;;;;;;;15.20;7.70;;;;;;;12.06;69.07;102031.77;105996;1259;99089;-79
2024/04/12 03:57:55;;;;;;;11.70;7.80;;;;;;;12.03;69.17;102033.70;105803;1260;98009;-78
2024/04/12 04:00:42;;;;;;;13.20;7.60;;;;;;;12.01;69.32;102035.54;105775;1258;98079;-79
2024/04/12 04:03:35;;;;;;;12.20;6.80;;;;;;;11.97;69.68;102036.64;105777;1260;98012;-80
2024/04/12 04:06:21;;;;;;;12.40;7.00;;;;;;;11.93;69.69;102032.86;105892;1268;103417;-79
2024/04/12 04:09:06;;;;;;;15.00;7.10;;;;;;;11.87;69.64;102029.51;105652;1257;100077;-79
2024/04/12 04:11:53;;;;;;;14.50;7.90;;;;;;;11.83;69.89;102027.50;106378;1258;98627;-78
2024/04/12 04:14:47;;;;;;;11.10;7.20;;;;;;;11.78;69.88;102028.89;105693;1259;97998;-78
2024/04/12 04:17:33;;;;;;;13.50;7.60;;;;;;;11.74;70.21;102029.13;105652;1259;98409;-79
2024/04/12 04:20:19;;;;;;;13.40;8.40;;;;;;;11.73;70.24;102027.22;105760;1258;101393;-78
2024/04/12 04:23:05;;;;;;;16.50;9.10;;;;;;;11.71;70.61;102029.05;105892;1257;99156;-79
2024/04/12 04:25:51;;;;;;;12.50;7.40;;;;;;;11.69;70.53;102030.91;106330;1257;98973;-78
2024/04/12 04:28:38;;;;;;;11.90;7.60;;;;;;;11.67;70.98;102027.14;105696;1258;99126;-78
2024/04/12 04:31:23;;;;;;;11.60;8.30;;;;;;;11.67;71.17;102024.99;105816;1254;97970;-79
2024/04/12 04:34:12;;;;;;;14.30;8.40;;;;;;;11.68;71.18;102021.20;105809;1257;101399;-79
2024/04/12 04:36:58;;;;;;;16.50;8.50;;;;;;;11.69;71.55;102024.11;105746;1254;99216;-78
2024/04/12 04:39:43;;;;;;;17.30;8.80;;;;;;;11.70;71.53;102026.52;105740;1257;97867;-79
2024/04/12 04:42:29;;;;;;;12.70;8.50;;;;;;;11.70;71.59;102028.63;105700;1257;97948;-78
2024/04/12 04:45:18;;;;;;;14.00;8.40;;;;;;;11.70;71.82;102032.74;105750;1257;97964;-78
2024/04/12 04:48:04;;;;;;;14.60;8.70;;;;;;;11.71;72.08;102036.84;105726;1254;101331;-80
2024/04/12 04:50:50;;;;;;;14.90;8.10;;;;;;;11.70;72.29;102038.11;105832;1258;99285;-78
2024/04/12 04:53:35;;;;;;;18.40;9.20;;;;;;;11.70;72.33;102043.14;105797;1254;98746;-78
2024/04/12 04:56:30;;;;;;;15.40;8.90;;;;;;;11.71;72.54;102050.94;105660;1257;98091;-78
2024/04/12 04:59:17;;;;;;;15.20;9.10;;;;;;;11.71;72.77;102059.45;105664;1257;97954;-79
2024/04/12 05:02:02;;;;;;;16.80;9.80;;;;;;;11.72;72.80;102066.08;105769;1254;102699;-78
2024/04/12 05:04:50;;;;;;;18.60;11.10;;;;;;;11.73;73.27;102066.23;105695;1257;99094;-78
2024/04/12 05:07:35;;;;;;;19.20;10.30;;;;;;;11.78;73.52;102065.23;105711;1260;98009;-78
2024/04/12 05:10:21;;;;;;;15.10;9.30;;;;;;;11.83;73.75;102064.70;105650;1257;97957;-79
2024/04/12 05:13:06;;;;;;;16.40;8.90;;;;;;;11.84;73.87;102062.91;105798;1254;97896;-78
2024/04/12 05:15:52;;;;;;;15.50;9.20;;;;;;;11.86;73.79;102060.95;105844;1254;102726;-79
2024/04/12 05:18:37;;;;;;;14.30;8.90;;;;;;;11.90;73.96;102058.71;105714;1254;99126;-78
2024/04/12 05:21:23;;;;;;;19.50;11.60;;;;;;;11.94;73.99;102058.10;105806;1257;98663;-78
2024/04/12 05:24:09;;;;;;;22.70;11.00;;;;;;;11.98;73.91;102055.02;105861;1254;96299;-77
2024/04/12 05:27:01;;;;;;;15.00;10.40;;;;;;;12.02;73.68;102055.86;105757;1257;99640;-78
2024/04/12 05:29:47;;;;;;;13.20;9.00;;;;;;;12.05;73.90;102056.58;105693;1254;102382;-78
2024/04/12 05:32:32;;;;;;;17.50;8.80;;;;;;;12.10;74.25;102055.75;105711;1254;100351;-79
2024/04/12 05:35:26;;;;;;;16.80;8.90;;;;;;;12.15;74.16;102056.45;105634;1254;98005;-79
2024/04/12 05:38:12;;;;;;;16.00;9.10;;;;;;;12.19;73.77;102054.90;105748;1257;98602;-79
2024/04/12 05:41:00;;;;;;;17.40;9.50;;;;;;;12.23;73.92;102056.83;105826;1258;98728;-79
2024/04/12 05:43:45;;;;;;;14.60;8.60;;;;;;;12.28;73.61;102057.52;105756;1261;101373;-79
2024/04/12 05:46:31;;;;;;;26.10;15.90;;;;;;;12.35;73.82;102058.92;105780;1257;99818;-79
2024/04/12 05:49:17;;;;;;;26.80;12.50;;;;;;;12.42;73.54;102058.04;105715;1257;97908;-79
2024/04/12 05:52:03;;;;;;;14.70;7.40;;;;;;;12.49;73.88;102061.91;105757;1257;97964;-79
2024/04/12 05:54:50;;;;;;;14.50;7.40;;;;;;;12.55;73.58;102067.52;105809;1254;98413;-79
2024/04/12 05:57:36;;;;;;;10.60;7.50;;;;;;;12.61;73.46;102067.39;106417;1254;102495;-79
2024/04/12 06:00:23;;;;;;;10.00;6.80;;;;;;;12.69;73.40;102066.77;106554;1259;99999;-79
2024/04/12 06:03:14;;;;;;;14.00;7.40;;;;;;;12.76;73.50;102069.20;106103;1254;99019;-79
2024/04/12 06:06:00;;;;;;;13.10;6.40;;;;;;;12.84;73.74;102070.84;105777;1257;97979;-79
2024/04/12 06:08:46;;;;;;;11.10;6.40;;;;;;;12.91;73.65;102063.75;105786;1257;98082;-79
2024/04/12 06:11:32;;;;;;;10.20;5.90;;;;;;;12.98;73.06;102059.23;105869;1257;102736;-80
2024/04/12 06:14:20;;;;;;;12.30;6.20;;;;;;;13.01;72.80;102063.00;105790;1254;99094;-79
2024/04/12 06:17:08;;;;;;;13.20;5.90;;;;;;;13.04;73.09;102063.78;105894;1257;98482;-80
2024/04/12 06:19:59;;;;;;;9.70;6.10;;;;;;;13.09;73.32;102064.14;106309;1254;97983;-79
2024/04/12 06:22:44;;;;;;;15.10;6.00;;;;;;;13.13;73.28;102062.76;105887;1254;99060;-86
2024/04/12 06:25:31;;;;;;;12.30;5.80;;;;;;;13.20;73.08;102058.45;106185;1254;102052;-84
2024/04/12 06:28:19;;;;;;;9.10;5.60;;;;;;;13.29;72.83;102061.78;105799;1260;100687;-85
2024/04/12 06:31:06;;;;;;;11.10;6.00;;;;;;;13.38;73.04;102056.73;106601;1258;97964;-82
2024/04/12 06:33:52;;;;;;;9.80;5.70;;;;;;;13.51;73.14;102056.75;106452;1254;98030;-86
2024/04/12 06:36:45;;;;;;;9.90;5.90;;;;;;;13.64;73.24;102058.48;106350;1254;98509;-84
2024/04/12 06:39:31;;;;;;;9.40;5.90;;;;;;;13.79;73.34;102056.25;106202;1258;101288;-83
2024/04/12 06:42:18;;;;;;;9.60;6.20;;;;;;;13.93;73.16;102056.83;106318;1254;101418;-82
2024/04/12 06:45:04;;;;;;;11.40;5.60;;;;;;;14.06;73.34;102056.85;106567;1254;98454;-84
2024/04/12 06:47:56;;;;;;;11.70;5.50;;;;;;;14.16;73.00;102055.63;106103;1261;98101;-85
2024/04/12 06:50:56;;;;;;;9.10;5.80;;;;;;;14.28;72.79;102058.80;106207;1258;98017;-82
2024/04/12 06:53:44;;;;;;;10.40;5.40;;;;;;;14.36;72.27;102056.09;106339;1270;102499;-84
2024/04/12 06:56:33;;;;;;;15.90;6.60;;;;;;;14.41;72.49;102056.69;106376;1254;100316;-86
2024/04/12 06:59:19;;;;;;;10.60;5.40;;;;;;;14.47;72.65;102057.98;106543;1254;98939;-86
2024/04/12 07:02:07;;;;;;;9.10;5.30;;;;;;;14.54;73.31;102056.62;106398;1253;97980;-87
2024/04/12 07:04:56;;;;;;;8.40;4.80;;;;;;;14.59;72.87;102057.50;106330;1259;96922;-82
2024/04/12 07:07:42;;;;;;;9.60;4.60;;;;;;;14.61;72.28;102059.38;106366;1257;101347;-87
2024/04/12 07:10:28;;;;;;;12.00;6.40;;;;;;;14.62;72.48;102061.60;106190;1260;100455;-86
2024/04/12 07:13:21;;;;;;;25.40;15.00;;;;;;;14.62;72.02;102065.88;106374;1254;98951;-88
2024/04/12 07:16:07;;;;;;;15.60;9.10;;;;;;;14.61;71.91;102067.30;106273;1258;98009;-85
2024/04/12 07:18:53;;;;;;;11.50;5.90;;;;;;;14.61;72.10;102071.71;106253;1254;98517;-85
2024/04/12 07:21:39;;;;;;;10.30;5.40;;;;;;;14.63;72.22;102072.65;106358;1254;103808;-88
2024/04/12 07:24:25;;;;;;;9.60;5.40;;;;;;;14.63;72.01;102070.09;106527;1257;100357;-83
2024/04/12 07:27:15;;;;;;;9.40;6.20;;;;;;;14.63;71.82;102074.27;106200;1260;98089;-87
2024/04/12 07:30:05;;;;;;;12.80;7.40;;;;;;;14.63;72.05;102076.59;106355;1254;98015;-86
2024/04/12 07:32:53;;;;;;;7.00;4.90;;;;;;;14.64;72.51;102079.71;107173;1254;97859;-85
2024/04/12 07:35:39;;;;;;;9.20;5.40;;;;;;;14.65;72.94;102081.91;106935;1257;101322;-86
2024/04/12 07:38:29;;;;;;;12.00;5.70;;;;;;;14.68;72.80;102084.29;106915;1254;99556;-87
2024/04/12 07:41:15;;;;;;;11.30;5.60;;;;;;;14.69;72.62;102082.19;106674;1256;99582;-87
2024/04/12 07:44:12;;;;;;;6.40;4.80;;;;;;;14.71;72.85;102085.02;106440;1259;97928;-89
2024/04/12 07:46:59;;;;;;;10.40;4.80;;;;;;;14.73;72.88;102093.18;106605;1254;98581;-84
2024/04/12 07:49:48;;;;;;;9.50;5.20;;;;;;;14.73;72.73;102088.94;106203;1259;101378;-81
2024/04/12 07:52:35;;;;;;;8.90;5.20;;;;;;;14.69;72.66;102085.39;106777;1257;101614;-81
2024/04/12 07:55:24;;;;;;;11.90;5.00;;;;;;;14.66;72.54;102084.95;106198;1253;98595;-80
2024/04/12 07:58:12;;;;;;;6.70;5.10;;;;;;;14.67;72.74;102087.39;106184;1254;97983;-80
2024/04/12 08:01:09;;;;;;;9.10;5.00;;;;;;;14.71;73.29;102088.45;106281;1257;98459;-80
2024/04/12 08:04:05;;;;;;;8.80;5.40;;;;;;;14.75;73.46;102086.58;106304;1254;103862;-81
2024/04/12 08:06:57;;;;;;;7.90;4.50;;;;;;;14.80;73.92;102073.69;106309;1254;99891;-84
2024/04/12 08:09:52;;;;;;;7.00;5.10;;;;;;;14.87;73.86;102074.68;106397;1255;99943;-88
2024/04/12 08:12:38;;;;;;;6.50;4.10;;;;;;;14.94;73.75;102072.25;106714;1254;98652;-86
2024/04/12 08:15:24;;;;;;;7.10;4.00;;;;;;;15.00;73.71;102071.65;106229;1257;98065;-85
2024/04/12 08:18:20;;;;;;;8.00;4.30;;;;;;;15.07;74.31;102066.73;106744;1254;102470;-89
2024/04/12 08:21:07;;;;;;;7.30;4.40;;;;;;;15.14;74.58;102068.52;107185;1257;100216;-89
2024/04/12 08:23:56;;;;;;;7.20;3.50;;;;;;;15.21;74.47;102069.88;106048;1254;98945;-81
2024/04/12 08:26:48;;;;;;;6.50;3.60;;;;;;;15.28;74.32;102071.17;106227;1253;97958;-78
2024/04/12 08:29:34;;;;;;;6.10;3.40;;;;;;;15.36;74.82;102072.38;106845;1257;97865;-78
2024/04/12 08:32:31;;;;;;;6.80;3.30;;;;;;;15.41;74.91;102075.06;106233;1253;102571;-79
2024/04/12 08:35:20;;;;;;;6.90;2.80;;;;;;;15.46;74.98;102074.14;105712;1260;99832;-79
2024/04/12 08:38:12;;;;;;;7.50;3.60;;;;;;;15.50;74.55;102073.71;105831;1258;97995;-80
2024/04/12 08:41:08;;;;;;;6.70;3.40;;;;;;;15.50;74.27;102071.61;105693;1254;97959;-80
2024/04/12 08:43:58;;;;;;;3.90;2.20;;;;;;;15.52;73.97;102071.80;105837;1254;100632;-79
2024/04/12 08:46:46;;;;;;;6.20;4.30;;;;;;;15.51;73.64;102070.09;105937;1254;101363;-83
2024/04/12 08:49:33;;;;;;;5.20;4.10;;;;;;;15.51;73.65;102067.38;106794;1253;99166;-84
2024/04/12 08:52:28;;;;;;;4.20;3.10;;;;;;;15.54;74.39;102068.63;106671;1254;98557;-81
2024/04/12 08:55:20;;;;;;;5.30;3.80;;;;;;;15.61;74.73;102067.79;106004;1253;97958;-80
2024/04/12 08:58:06;;;;;;;8.00;3.40;;;;;;;15.68;74.21;102069.64;106510;1254;98506;-80
2024/04/12 09:00:55;;;;;;;3.90;2.40;;;;;;;15.70;74.46;102070.50;105810;1254;101924;-79
2024/04/12 09:04:03;;;;;;;3.40;2.30;;;;;;;15.68;73.70;102071.30;106803;1254;100307;-82
2024/04/12 09:06:49;;;;;;;3.10;1.90;;;;;;;15.62;73.60;102071.42;106132;1262;98974;-84
2024/04/12 09:09:35;;;;;;;2.30;1.70;;;;;;;15.61;73.78;102071.94;105831;1257;98089;-86
2024/04/12 09:12:24;;;;;;;2.90;1.80;;;;;;;15.60;73.73;102065.98;106005;1256;98435;-85
2024/04/12 09:15:23;;;;;;;5.00;2.00;;;;;;;15.59;73.82;102061.94;106133;1257;101361;-83
2024/04/12 09:18:19;;;;;;;2.90;2.00;;;;;;;15.61;74.36;102065.98;105891;1257;100364;-83
2024/04/12 09:21:14;;;;;;;5.40;3.20;;;;;;;15.62;74.30;102071.42;105919;1256;99075;-84
2024/04/12 09:24:09;;;;;;;6.40;4.80;;;;;;;15.62;74.12;102071.58;106421;1257;97964;-84
2024/04/12 09:26:55;;;;;;;4.00;3.60;;;;;;;15.60;74.36;102069.31;105958;1256;96364;-84
2024/04/12 09:29:44;;;;;;;6.20;4.30;;;;;;;15.62;75.00;102068.91;106054;1257;102584;-83
2024/04/12 09:35:38;;;;;;;4.40;3.00;;;;;;;15.72;74.92;102069.91;105947;1257;98640;-85
2024/04/12 09:38:27;;;;;;;3.90;2.10;;;;;;;15.76;74.50;102065.95;105902;1257;97887;-85
2024/04/12 09:41:31;;;;;;;3.50;2.40;;;;;;;15.81;74.64;102065.00;106106;1256;98175;-85
2024/04/12 09:44:26;;;;;;;3.90;2.70;;;;;;;15.88;75.12;102059.36;105829;1256;292210;-83
2024/04/12 10:40:04;;;;;;;3.50;2.30;;;;;;;16.27;72.75;102033.79;106120;1256;97875;-87
2024/04/12 10:42:52;;;;;;;2.90;2.20;;;;;;;16.25;72.63;102035.56;106422;1256;98370;-90
2024/04/12 10:45:38;;;;;;;4.00;2.50;;;;;;;16.21;72.42;102030.24;105947;1256;101366;-85
2024/04/12 10:48:24;;;;;;;4.40;2.70;;;;;;;16.15;72.48;102028.90;106245;1257;100566;-86
2024/04/12 10:51:14;;;;;;;5.00;2.90;;;;;;;16.11;72.47;102027.16;106085;1257;99897;-87
2024/04/12 10:54:04;;;;;;;9.20;2.80;;;;;;;16.09;72.48;102023.83;106153;1257;97901;-81
2024/04/12 10:56:53;;;;;;;4.80;3.10;;;;;;;16.07;72.83;102021.91;106336;1260;98047;-82
2024/04/12 10:59:42;;;;;;;5.20;3.20;;;;;;;16.08;72.53;102019.59;106169;1256;101359;-81
2024/04/12 11:02:28;;;;;;;5.20;3.50;;;;;;;16.11;72.64;102016.88;106107;1257;102149;-87
2024/04/12 11:08:08;;;;;;;6.40;3.80;;;;;;;16.21;73.18;102002.95;106486;1260;97948;-85
2024/04/12 11:10:55;;;;;;;4.30;3.70;;;;;;;16.25;73.10;101997.89;106434;1255;97870;-88
2024/04/12 11:13:46;;;;;;;5.00;4.00;;;;;;;16.33;73.44;101995.80;106580;1257;102418;-88
2024/04/12 11:32:24;;;;;;;2.90;1.80;;;;;;;16.42;71.19;101982.41;106129;1257;99134;-86
2024/04/12 11:35:11;;;;;;;6.90;2.00;;;;;;;16.41;70.65;101982.21;106157;1256;99024;-86
2024/04/12 11:37:57;;;;;;;5.00;2.40;;;;;;;16.44;70.77;101979.63;106017;1256;98448;-84
2024/04/12 11:40:45;;;;;;;3.60;1.80;;;;;;;16.50;70.72;101975.55;106323;1256;97756;-83
2024/04/12 11:43:34;;;;;;;6.90;2.70;;;;;;;16.53;70.92;101976.77;106102;1257;101360;-86
2024/04/12 11:46:23;;;;;;;3.20;2.60;;;;;;;16.56;71.60;101978.86;106201;1255;100269;-89
2024/04/12 11:49:09;;;;;;;4.40;2.20;;;;;;;16.61;71.51;101976.20;106047;1257;99021;-84
2024/04/12 11:51:57;;;;;;;4.00;2.30;;;;;;;16.63;71.07;101972.73;106410;1259;97891;-82
2024/04/12 11:54:46;;;;;;;4.80;2.10;;;;;;;16.62;70.75;101971.70;106222;1256;99554;-81
2024/04/12 11:57:37;;;;;;;2.50;2.00;;;;;;;16.68;71.58;101965.10;106043;1260;102584;-82
2024/04/12 12:00:22;;;;;;;4.20;2.30;;;;;;;16.74;71.01;101963.54;105640;1259;99156;-79
2024/04/12 12:03:20;;;;;;;4.30;2.10;;;;;;;16.78;70.20;101968.80;105605;1259;100025;-80
2024/04/12 12:06:09;;;;;;;3.10;2.00;;;;;;;16.74;69.17;101968.44;106182;1256;97950;-79
2024/04/12 12:08:57;;;;;;;3.40;1.80;;;;;;;16.69;69.32;101964.73;106290;1256;97667;-81
2024/04/12 12:11:49;;;;;;;3.50;2.10;;;;;;;16.68;69.68;101964.18;106569;1257;101366;-81
2024/04/12 12:14:34;;;;;;;4.40;2.70;;;;;;;16.66;69.96;101964.57;106252;1257;99121;-81
2024/04/12 12:17:20;;;;;;;3.60;2.40;;;;;;;16.63;69.89;101965.13;106267;1256;98268;-80
2024/04/12 12:20:07;;;;;;;6.40;2.80;;;;;;;16.61;69.76;101959.10;106268;1255;97944;-81
2024/04/12 12:22:56;;;;;;;4.70;2.40;;;;;;;16.59;70.18;101955.92;106368;1256;99801;-80
2024/04/12 12:25:42;;;;;;;7.90;5.80;;;;;;;16.57;70.11;101953.33;106102;1260;101310;-79
2024/04/12 12:28:27;;;;;;;14.50;9.20;;;;;;;16.54;69.96;101952.84;106231;1256;99964;-78
2024/04/12 12:31:18;;;;;;;9.40;4.50;;;;;;;16.51;70.13;101952.31;106209;1256;97966;-81
2024/04/12 12:34:05;;;;;;;5.00;2.60;;;;;;;16.49;70.13;101949.61;105995;1263;97969;-80
2024/04/12 12:36:53;;;;;;;3.30;2.60;;;;;;;16.45;69.95;101949.73;106008;1256;97952;-80
2024/04/12 12:39:47;;;;;;;3.70;2.60;;;;;;;16.42;69.97;101946.52;105768;1256;102583;-80
2024/04/12 12:42:37;;;;;;;3.80;2.70;;;;;;;16.40;70.25;101942.42;106063;1261;99154;-81
2024/04/12 12:45:24;;;;;;;3.40;1.80;;;;;;;16.42;70.89;101940.23;106035;1256;99145;-80
2024/04/12 12:48:20;;;;;;;6.90;2.60;;;;;;;16.44;70.97;101937.27;106120;1256;98029;-80
2024/04/12 12:51:08;;;;;;;2.90;2.20;;;;;;;16.41;70.75;101938.70;106119;1258;97982;-81
2024/04/12 12:53:54;;;;;;;4.10;1.40;;;;;;;16.40;70.73;101935.43;106037;1257;102626;-81
2024/04/12 12:56:40;;;;;;;2.80;1.90;;;;;;;16.39;70.25;101932.42;106481;1256;99087;-81
2024/04/12 12:59:28;;;;;;;3.10;1.90;;;;;;;16.39;70.11;101929.17;106642;1256;97987;-81
2024/04/12 13:02:16;;;;;;;2.10;1.70;;;;;;;16.42;69.74;101924.77;106337;1258;97974;-80
2024/04/12 13:05:06;;;;;;;4.70;2.60;;;;;;;16.46;69.73;101918.68;106128;1260;98003;-80
2024/04/12 13:07:52;;;;;;;4.90;2.80;;;;;;;16.52;70.47;101913.73;105661;1256;101488;-80
2024/04/12 13:10:38;;;;;;;5.00;2.00;;;;;;;16.63;71.23;101914.48;106052;1256;100074;-81
2024/04/12 13:13:23;;;;;;;3.60;1.90;;;;;;;16.74;71.23;101910.53;106153;1260;97961;-80
2024/04/12 13:16:11;;;;;;;5.10;2.00;;;;;;;16.84;70.92;101906.70;106188;1256;98086;-80
2024/04/12 13:18:56;;;;;;;5.50;1.60;;;;;;;16.94;70.63;101902.15;106074;1262;99797;-79
2024/04/12 13:21:42;;;;;;;2.00;1.60;;;;;;;17.02;70.14;101900.46;105600;1259;101342;-80
2024/04/12 13:24:28;;;;;;;2.30;1.70;;;;;;;17.07;69.60;101901.62;105955;1259;100344;-78
2024/04/12 13:27:14;;;;;;;2.30;1.40;;;;;;;17.09;69.26;101894.88;106204;1260;97973;-80
2024/04/12 13:30:00;;;;;;;2.50;1.60;;;;;;;17.11;69.12;101886.83;106473;1257;98083;-79
2024/04/12 13:32:49;;;;;;;6.20;1.90;;;;;;;17.17;69.25;101879.86;106315;1259;97913;-81
2024/04/12 13:35:40;;;;;;;2.60;1.70;;;;;;;17.32;69.56;101874.13;106318;1256;101384;-82
2024/04/12 13:38:27;;;;;;;5.00;1.40;;;;;;;17.48;69.55;101872.11;106060;1257;99018;-78
2024/04/12 13:41:12;;;;;;;5.00;1.70;;;;;;;17.59;69.13;101876.83;105495;1259;99271;-79
2024/04/12 13:43:58;;;;;;;4.20;1.30;;;;;;;17.62;67.76;101873.27;105705;1255;98552;-79
2024/04/12 13:52:53;;;;;;;2.90;1.90;;;;;;;17.52;66.81;101853.93;105698;1259;99102;-79
2024/04/12 13:55:39;;;;;;;4.50;2.30;;;;;;;17.48;66.91;101856.80;105606;1259;98969;-79
2024/04/12 13:58:25;;;;;;;4.70;2.60;;;;;;;17.48;67.31;101852.27;105704;1256;97998;-80
2024/04/12 14:01:11;;;;;;;3.20;2.00;;;;;;;17.51;67.93;101850.58;106220;1256;97933;-80
2024/04/12 14:04:04;;;;;;;4.30;2.20;;;;;;;17.53;68.15;101854.89;106383;1259;101378;-81
2024/04/12 14:06:50;;;;;;;3.20;2.20;;;;;;;17.51;67.14;101849.91;106140;1255;99104;-80
2024/04/12 14:09:36;;;;;;;2.90;2.20;;;;;;;17.45;67.17;101846.45;106284;1259;97964;-81